sensor_id;sensor_type;location;lat;lon;timestamp;pressure;altitude;pressure_sealevel;temperature;humidity
44872;BME280;30602;51.060;17.226;2023-04-22T00:04:43;101509.88;;;5.54;89.13
44872;BME280;30602;51.060;17.226;2023-04-22T00:08:21;101511.32;;;5.32;89.07
44872;BME280;30602;51.060;17.226;2023-04-22T00:12:20;101510.87;;;5.24;89.42
44872;BME280;30602;51.060;17.226;2023-04-22T00:15:50;101512.22;;;5.26;89.74
44872;BME280;30602;51.060;17.226;2023-04-22T00:19:15;101508.75;;;5.21;90.88
44872;BME280;30602;51.060;17.226;2023-04-22T00:23:02;101512.27;;;5.34;91.28
44872;BME280;30602;51.060;17.226;2023-04-22T00:27:07;101513.97;;;5.27;91.52
44872;BME280;30602;51.060;17.226;2023-04-22T00:31:10;101512.49;;;5.44;91.19
44872;BME280;30602;51.060;17.226;2023-04-22T00:34:55;101507.16;;;5.48;90.96
44872;BME280;30602;51.060;17.226;2023-04-22T00:38:47;101509.37;;;5.25;90.86
44872;BME280;30602;51.060;17.226;2023-04-22T00:43:07;101507.54;;;5.35;91.18
44872;BME280;30602;51.060;17.226;2023-04-22T00:47:22;101505.99;;;5.36;90.89
44872;BME280;30602;51.060;17.226;2023-04-22T00:50:49;101498.05;;;5.26;91.17
44872;BME280;30602;51.060;17.226;2023-04-22T00:54:45;101506.46;;;5.21;91.75
44872;BME280;30602;51.060;17.226;2023-04-22T00:58:48;101512.99;;;5.22;91.90
44872;BME280;30602;51.060;17.226;2023-04-22T01:02:44;101516.61;;;5.21;91.87
44872;BME280;30602;51.060;17.226;2023-04-22T01:06:09;101527.38;;;5.24;91.89
44872;BME280;30602;51.060;17.226;2023-04-22T01:09:31;101527.95;;;5.19;93.00
44872;BME280;30602;51.060;17.226;2023-04-22T01:13:01;101521.25;;;5.19;92.67
44872;BME280;30602;51.060;17.226;2023-04-22T01:16:55;101529.86;;;5.31;92.56
44872;BME280;30602;51.060;17.226;2023-04-22T01:21:02;101520.30;;;5.26;93.68
44872;BME280;30602;51.060;17.226;2023-04-22T01:24:46;101527.27;;;5.36;93.41
44872;BME280;30602;51.060;17.226;2023-04-22T01:28:58;101516.61;;;5.21;93.68
44872;BME280;30602;51.060;17.226;2023-04-22T01:32:45;101526.39;;;5.28;92.64
44872;BME280;30602;51.060;17.226;2023-04-22T01:36:10;101521.77;;;5.27;92.56
44872;BME280;30602;51.060;17.226;2023-04-22T01:40:04;101524.84;;;5.02;93.24
44872;BME280;30602;51.060;17.226;2023-04-22T01:44:09;101525.10;;;4.95;92.98
44872;BME280;30602;51.060;17.226;2023-04-22T01:47:41;101529.97;;;4.76;92.46
44872;BME280;30602;51.060;17.226;2023-04-22T01:51:26;101509.05;;;4.44;92.92
44872;BME280;30602;51.060;17.226;2023-04-22T01:55:25;101521.71;;;4.51;93.02
44872;BME280;30602;51.060;17.226;2023-04-22T01:59:00;101520.65;;;4.53;93.37
44872;BME280;30602;51.060;17.226;2023-04-22T02:02:46;101505.75;;;4.39;93.56
44872;BME280;30602;51.060;17.226;2023-04-22T02:06:22;101513.11;;;4.32;93.35
44872;BME280;30602;51.060;17.226;2023-04-22T02:10:03;101508.64;;;4.17;93.17
44872;BME280;30602;51.060;17.226;2023-04-22T02:13:48;101508.94;;;4.08;94.34
44872;BME280;30602;51.060;17.226;2023-04-22T02:17:12;101507.17;;;4.03;94.77
44872;BME280;30602;51.060;17.226;2023-04-22T02:20:38;101507.04;;;4.06;95.26
44872;BME280;30602;51.060;17.226;2023-04-22T02:24:45;101504.46;;;3.91;95.68
44872;BME280;30602;51.060;17.226;2023-04-22T02:28:29;101497.44;;;3.92;96.76
44872;BME280;30602;51.060;17.226;2023-04-22T02:32:25;101499.61;;;4.07;97.97
44872;BME280;30602;51.060;17.226;2023-04-22T02:36:06;101488.74;;;3.93;97.39
44872;BME280;30602;51.060;17.226;2023-04-22T02:39:47;101496.08;;;3.98;97.79
44872;BME280;30602;51.060;17.226;2023-04-22T02:43:24;101493.53;;;4.05;97.56
44872;BME280;30602;51.060;17.226;2023-04-22T02:46:45;101495.38;;;4.19;97.36
44872;BME280;30602;51.060;17.226;2023-04-22T02:50:15;101492.89;;;4.14;97.34
44872;BME280;30602;51.060;17.226;2023-04-22T02:53:33;101489.59;;;4.17;97.00
44872;BME280;30602;51.060;17.226;2023-04-22T02:56:57;101469.72;;;4.14;96.38
44872;BME280;30602;51.060;17.226;2023-04-22T03:00:49;101485.15;;;4.24;96.03
44872;BME280;30602;51.060;17.226;2023-04-22T03:04:39;101483.88;;;4.14;95.92
44872;BME280;30602;51.060;17.226;2023-04-22T03:08:18;101484.66;;;4.01;95.65
44872;BME280;30602;51.060;17.226;2023-04-22T03:11:47;101481.95;;;3.78;95.59
44872;BME280;30602;51.060;17.226;2023-04-22T03:15:39;101486.84;;;3.72;96.17
44872;BME280;30602;51.060;17.226;2023-04-22T03:19:13;101489.68;;;3.66;96.26
44872;BME280;30602;51.060;17.226;2023-04-22T03:22:35;101486.21;;;3.57;94.83
44872;BME280;30602;51.060;17.226;2023-04-22T03:25:58;101487.00;;;3.33;94.08
44872;BME280;30602;51.060;17.226;2023-04-22T03:30:04;101486.67;;;3.29;94.77
44872;BME280;30602;51.060;17.226;2023-04-22T03:33:51;101477.75;;;3.32;97.16
44872;BME280;30602;51.060;17.226;2023-04-22T03:37:31;101485.45;;;3.48;97.71
44872;BME280;30602;51.060;17.226;2023-04-22T03:41:23;101480.91;;;3.53;98.10
44872;BME280;30602;51.060;17.226;2023-04-22T03:45:07;101477.57;;;3.63;98.04
44872;BME280;30602;51.060;17.226;2023-04-22T03:48:29;101478.65;;;3.51;97.06
44872;BME280;30602;51.060;17.226;2023-04-22T03:52:23;101476.59;;;3.24;95.51
44872;BME280;30602;51.060;17.226;2023-04-22T03:56:04;101475.66;;;3.39;96.74
44872;BME280;30602;51.060;17.226;2023-04-22T03:59:56;101478.41;;;3.53;97.70
44872;BME280;30602;51.060;17.226;2023-04-22T04:03:34;101476.09;;;3.51;98.36
44872;BME280;30602;51.060;17.226;2023-04-22T04:07:02;101479.27;;;3.51;98.85
44872;BME280;30602;51.060;17.226;2023-04-22T04:10:52;101482.28;;;3.56;98.58
44872;BME280;30602;51.060;17.226;2023-04-22T04:14:38;101471.35;;;3.62;98.66
44872;BME280;30602;51.060;17.226;2023-04-22T04:18:10;101468.44;;;3.65;98.41
44872;BME280;30602;51.060;17.226;2023-04-22T04:22:00;101472.34;;;3.71;98.57
44872;BME280;30602;51.060;17.226;2023-04-22T04:25:56;101475.98;;;3.73;99.11
44872;BME280;30602;51.060;17.226;2023-04-22T04:29:30;101476.56;;;3.84;99.49
44872;BME280;30602;51.060;17.226;2023-04-22T04:33:22;101482.28;;;4.00;99.14
44872;BME280;30602;51.060;17.226;2023-04-22T04:37:21;101465.22;;;4.14;98.22
44872;BME280;30602;51.060;17.226;2023-04-22T04:40:40;101478.80;;;4.40;98.37
44872;BME280;30602;51.060;17.226;2023-04-22T04:44:42;101476.47;;;4.55;98.90
44872;BME280;30602;51.060;17.226;2023-04-22T04:48:41;101479.95;;;4.85;97.48
44872;BME280;30602;51.060;17.226;2023-04-22T04:52:26;101477.42;;;5.11;96.30
44872;BME280;30602;51.060;17.226;2023-04-22T04:56:27;101476.69;;;5.35;94.64
44872;BME280;30602;51.060;17.226;2023-04-22T05:00:20;101457.68;;;5.61;93.52
44872;BME280;30602;51.060;17.226;2023-04-22T05:04:20;101475.22;;;5.77;95.47
44872;BME280;30602;51.060;17.226;2023-04-22T05:07:43;101462.62;;;5.87;96.33
44872;BME280;30602;51.060;17.226;2023-04-22T05:11:17;101476.25;;;6.15;95.32
44872;BME280;30602;51.060;17.226;2023-04-22T05:15:18;101476.73;;;6.21;95.29
44872;BME280;30602;51.060;17.226;2023-04-22T05:18:36;101481.04;;;6.30;94.22
44872;BME280;30602;51.060;17.226;2023-04-22T05:22:39;101483.79;;;6.43;93.28
44872;BME280;30602;51.060;17.226;2023-04-22T05:26:33;101481.13;;;6.70;91.80
44872;BME280;30602;51.060;17.226;2023-04-22T05:30:15;101483.29;;;6.95;90.93
44872;BME280;30602;51.060;17.226;2023-04-22T05:34:17;101487.59;;;7.15;89.57
44872;BME280;30602;51.060;17.226;2023-04-22T05:38:57;101489.08;;;7.35;88.20
44872;BME280;30602;51.060;17.226;2023-04-22T05:42:39;101481.67;;;7.57;88.54
44872;BME280;30602;51.060;17.226;2023-04-22T05:46:09;101481.63;;;7.69;88.24
44872;BME280;30602;51.060;17.226;2023-04-22T05:50:14;101477.52;;;7.92;86.73
44872;BME280;30602;51.060;17.226;2023-04-22T05:53:41;101475.62;;;8.14;85.68
44872;BME280;30602;51.060;17.226;2023-04-22T05:57:06;101474.47;;;8.63;85.06
44872;BME280;30602;51.060;17.226;2023-04-22T06:00:41;101473.53;;;8.86;82.99
44872;BME280;30602;51.060;17.226;2023-04-22T06:04:02;101469.28;;;9.43;79.25
44872;BME280;30602;51.060;17.226;2023-04-22T06:07:47;101457.75;;;9.48;79.89
44872;BME280;30602;51.060;17.226;2023-04-22T06:11:26;101471.88;;;9.94;77.22
44872;BME280;30602;51.060;17.226;2023-04-22T06:14:50;101456.83;;;10.09;75.93
44872;BME280;30602;51.060;17.226;2023-04-22T06:18:18;101468.89;;;10.15;73.49
44872;BME280;30602;51.060;17.226;2023-04-22T06:21:42;101471.66;;;10.38;73.72
44872;BME280;30602;51.060;17.226;2023-04-22T06:25:07;101469.44;;;10.77;72.24
44872;BME280;30602;51.060;17.226;2023-04-22T06:28:51;101473.89;;;10.91;70.92
44872;BME280;30602;51.060;17.226;2023-04-22T06:32:14;101468.36;;;11.06;71.78
44872;BME280;30602;51.060;17.226;2023-04-22T06:35:39;101471.34;;;11.08;70.90
44872;BME280;30602;51.060;17.226;2023-04-22T06:39:07;101467.44;;;11.33;68.84
44872;BME280;30602;51.060;17.226;2023-04-22T06:43:29;101465.81;;;11.43;70.36
44872;BME280;30602;51.060;17.226;2023-04-22T06:46:53;101462.86;;;11.38;71.85
44872;BME280;30602;51.060;17.226;2023-04-22T06:50:34;101466.30;;;11.50;71.01
44872;BME280;30602;51.060;17.226;2023-04-22T06:54:00;101468.23;;;11.53;68.76
44872;BME280;30602;51.060;17.226;2023-04-22T06:57:43;101465.69;;;11.63;69.27
44872;BME280;30602;51.060;17.226;2023-04-22T07:01:52;101464.69;;;11.91;69.35
44872;BME280;30602;51.060;17.226;2023-04-22T07:05:34;101461.93;;;12.08;69.62
44872;BME280;30602;51.060;17.226;2023-04-22T07:09:20;101467.12;;;11.93;70.43
44872;BME280;30602;51.060;17.226;2023-04-22T07:13:16;101466.20;;;12.22;69.98
44872;BME280;30602;51.060;17.226;2023-04-22T07:17:09;101463.88;;;12.31;68.87
44872;BME280;30602;51.060;17.226;2023-04-22T07:20:30;101461.67;;;12.43;68.18
44872;BME280;30602;51.060;17.226;2023-04-22T07:23:52;101465.70;;;12.38;66.97
44872;BME280;30602;51.060;17.226;2023-04-22T07:27:44;101465.88;;;12.61;67.53
44872;BME280;30602;51.060;17.226;2023-04-22T07:31:16;101466.07;;;12.72;68.78
44872;BME280;30602;51.060;17.226;2023-04-22T07:35:43;101465.13;;;12.98;66.27
44872;BME280;30602;51.060;17.226;2023-04-22T07:39:37;101462.19;;;13.28;64.67
44872;BME280;30602;51.060;17.226;2023-04-22T07:43:32;101465.91;;;13.24;64.63
44872;BME280;30602;51.060;17.226;2023-04-22T07:47:24;101463.13;;;13.53;65.60
44872;BME280;30602;51.060;17.226;2023-04-22T07:51:13;101468.77;;;13.72;66.54
44872;BME280;30602;51.060;17.226;2023-04-22T07:54:35;101465.95;;;13.79;66.15
44872;BME280;30602;51.060;17.226;2023-04-22T07:58:19;101458.48;;;13.73;64.01
44872;BME280;30602;51.060;17.226;2023-04-22T08:01:57;101458.60;;;14.08;62.61
44872;BME280;30602;51.060;17.226;2023-04-22T08:05:45;101459.20;;;14.05;62.98
44872;BME280;30602;51.060;17.226;2023-04-22T08:09:54;101455.16;;;14.36;62.89
44872;BME280;30602;51.060;17.226;2023-04-22T08:13:27;101455.45;;;14.75;59.39
44872;BME280;30602;51.060;17.226;2023-04-22T08:17:21;101453.69;;;14.69;59.46
44872;BME280;30602;51.060;17.226;2023-04-22T08:21:03;101455.77;;;14.77;60.05
44872;BME280;30602;51.060;17.226;2023-04-22T08:24:31;101457.82;;;14.75;58.33
44872;BME280;30602;51.060;17.226;2023-04-22T08:28:21;101454.45;;;14.73;58.53
44872;BME280;30602;51.060;17.226;2023-04-22T08:32:06;101454.45;;;15.31;55.71
44872;BME280;30602;51.060;17.226;2023-04-22T08:36:02;101452.05;;;15.61;54.23
44872;BME280;30602;51.060;17.226;2023-04-22T08:40:40;101448.86;;;15.73;55.30
44872;BME280;30602;51.060;17.226;2023-04-22T08:44:10;101441.14;;;15.89;50.58
44872;BME280;30602;51.060;17.226;2023-04-22T08:47:56;101439.72;;;16.24;50.57
44872;BME280;30602;51.060;17.226;2023-04-22T08:51:37;101442.50;;;15.96;50.14
44872;BME280;30602;51.060;17.226;2023-04-22T08:55:33;101437.22;;;16.32;51.27
44872;BME280;30602;51.060;17.226;2023-04-22T08:59:18;101436.20;;;16.44;48.30
44872;BME280;30602;51.060;17.226;2023-04-22T09:03:25;101436.40;;;16.54;51.93
44872;BME280;30602;51.060;17.226;2023-04-22T09:06:59;101432.38;;;16.79;50.62
44872;BME280;30602;51.060;17.226;2023-04-22T09:11:05;101428.26;;;16.76;49.97
44872;BME280;30602;51.060;17.226;2023-04-22T09:15:22;101428.62;;;16.86;48.45
44872;BME280;30602;51.060;17.226;2023-04-22T09:19:27;101430.51;;;16.75;47.78
44872;BME280;30602;51.060;17.226;2023-04-22T09:26:41;101425.90;;;17.26;46.14
44872;BME280;30602;51.060;17.226;2023-04-22T09:30:32;101420.65;;;17.45;45.57
44872;BME280;30602;51.060;17.226;2023-04-22T09:34:17;101418.52;;;17.57;44.84
44872;BME280;30602;51.060;17.226;2023-04-22T09:38:09;101418.90;;;17.59;43.95
44872;BME280;30602;51.060;17.226;2023-04-22T09:41:53;101411.80;;;17.82;45.97
44872;BME280;30602;51.060;17.226;2023-04-22T09:45:41;101407.82;;;18.08;42.38
44872;BME280;30602;51.060;17.226;2023-04-22T09:49:22;101405.38;;;18.06;41.59
44872;BME280;30602;51.060;17.226;2023-04-22T09:52:54;101399.85;;;18.07;42.18
44872;BME280;30602;51.060;17.226;2023-04-22T09:56:15;101395.47;;;18.13;38.80
44872;BME280;30602;51.060;17.226;2023-04-22T09:59:58;101394.92;;;18.25;37.17
44872;BME280;30602;51.060;17.226;2023-04-22T10:04:30;101396.89;;;18.51;37.43
44872;BME280;30602;51.060;17.226;2023-04-22T10:08:12;101395.11;;;18.56;37.65
44872;BME280;30602;51.060;17.226;2023-04-22T10:11:34;101388.55;;;18.61;37.60
44872;BME280;30602;51.060;17.226;2023-04-22T10:15:48;101383.16;;;18.54;35.88
44872;BME280;30602;51.060;17.226;2023-04-22T10:19:11;101384.45;;;18.63;37.84
44872;BME280;30602;51.060;17.226;2023-04-22T10:22:38;101371.10;;;18.65;38.17
44872;BME280;30602;51.060;17.226;2023-04-22T10:26:41;101377.48;;;18.94;38.80
44872;BME280;30602;51.060;17.226;2023-04-22T10:30:46;101377.63;;;18.92;38.81
44872;BME280;30602;51.060;17.226;2023-04-22T10:34:23;101371.02;;;19.15;38.41
44872;BME280;30602;51.060;17.226;2023-04-22T10:37:45;101368.02;;;18.96;35.94
44872;BME280;30602;51.060;17.226;2023-04-22T10:41:29;101369.61;;;19.07;37.81
44872;BME280;30602;51.060;17.226;2023-04-22T10:45:13;101371.01;;;19.16;37.84
44872;BME280;30602;51.060;17.226;2023-04-22T10:49:24;101370.76;;;19.17;35.93
44872;BME280;30602;51.060;17.226;2023-04-22T10:56:27;101357.94;;;19.01;36.93
44872;BME280;30602;51.060;17.226;2023-04-22T11:11:38;101343.73;;;19.34;35.88
44872;BME280;30602;51.060;17.226;2023-04-22T11:16:47;101342.88;;;19.22;33.56
44872;BME280;30602;51.060;17.226;2023-04-22T11:20:31;101334.16;;;19.09;33.33
44872;BME280;30602;51.060;17.226;2023-04-22T11:23:52;101330.06;;;18.92;34.11
44872;BME280;30602;51.060;17.226;2023-04-22T11:27:18;101329.20;;;19.00;33.23
44872;BME280;30602;51.060;17.226;2023-04-22T11:31:29;101331.91;;;18.96;33.15
44872;BME280;30602;51.060;17.226;2023-04-22T11:34:52;101322.89;;;18.69;33.79
44872;BME280;30602;51.060;17.226;2023-04-22T11:38:56;101320.26;;;18.92;36.51
44872;BME280;30602;51.060;17.226;2023-04-22T11:42:41;101315.17;;;19.36;36.59
44872;BME280;30602;51.060;17.226;2023-04-22T11:46:14;101313.18;;;19.62;36.92
44872;BME280;30602;51.060;17.226;2023-04-22T11:49:33;101307.87;;;19.60;37.06
44872;BME280;30602;51.060;17.226;2023-04-22T11:53:51;101301.43;;;19.70;36.74
44872;BME280;30602;51.060;17.226;2023-04-22T11:57:38;101300.48;;;19.88;36.88
44872;BME280;30602;51.060;17.226;2023-04-22T12:01:01;101305.03;;;19.57;35.47
44872;BME280;30602;51.060;17.226;2023-04-22T12:05:16;101291.86;;;19.73;34.75
44872;BME280;30602;51.060;17.226;2023-04-22T12:09:01;101290.20;;;19.89;35.35
44872;BME280;30602;51.060;17.226;2023-04-22T12:13:20;101291.40;;;20.21;36.09
44872;BME280;30602;51.060;17.226;2023-04-22T12:17:22;101286.52;;;20.20;36.33
44872;BME280;30602;51.060;17.226;2023-04-22T12:21:41;101281.05;;;20.36;35.93
44872;BME280;30602;51.060;17.226;2023-04-22T12:29:25;101282.74;;;20.18;34.67
44872;BME280;30602;51.060;17.226;2023-04-22T12:32:45;101276.62;;;19.95;31.92
44872;BME280;30602;51.060;17.226;2023-04-22T12:37:06;101272.99;;;19.92;32.18
44872;BME280;30602;51.060;17.226;2023-04-22T12:40:48;101272.30;;;19.63;32.96
44872;BME280;30602;51.060;17.226;2023-04-22T12:44:28;101265.51;;;19.88;32.71
44872;BME280;30602;51.060;17.226;2023-04-22T12:47:51;101267.11;;;20.13;33.50
44872;BME280;30602;51.060;17.226;2023-04-22T12:51:26;101260.45;;;20.07;35.35
44872;BME280;30602;51.060;17.226;2023-04-22T12:54:44;101251.34;;;19.90;34.57
44872;BME280;30602;51.060;17.226;2023-04-22T12:58:16;101246.29;;;19.89;33.76
44872;BME280;30602;51.060;17.226;2023-04-22T13:01:57;101241.73;;;19.70;32.17
44872;BME280;30602;51.060;17.226;2023-04-22T13:05:50;101233.72;;;19.63;29.37
44872;BME280;30602;51.060;17.226;2023-04-22T13:09:45;101232.38;;;20.06;31.76
44872;BME280;30602;51.060;17.226;2023-04-22T13:13:11;101228.50;;;19.86;33.09
44872;BME280;30602;51.060;17.226;2023-04-22T13:16:35;101199.16;;;19.60;34.45
44872;BME280;30602;51.060;17.226;2023-04-22T13:20:18;101218.52;;;20.06;33.18
44872;BME280;30602;51.060;17.226;2023-04-22T13:23:45;101212.60;;;19.86;33.32
44872;BME280;30602;51.060;17.226;2023-04-22T13:27:21;101213.52;;;19.79;29.92
44872;BME280;30602;51.060;17.226;2023-04-22T13:30:55;101207.25;;;19.73;31.99
44872;BME280;30602;51.060;17.226;2023-04-22T13:34:44;101204.21;;;19.81;32.86
44872;BME280;30602;51.060;17.226;2023-04-22T14:38:49;101162.56;;;19.82;34.26
44872;BME280;30602;51.060;17.226;2023-04-22T14:42:23;101168.45;;;20.19;35.61
44872;BME280;30602;51.060;17.226;2023-04-22T14:46:17;101163.31;;;20.24;35.07
44872;BME280;30602;51.060;17.226;2023-04-22T14:50:03;101161.46;;;20.21;32.57
44872;BME280;30602;51.060;17.226;2023-04-22T14:53:21;101154.21;;;20.24;32.93
44872;BME280;30602;51.060;17.226;2023-04-22T14:57:13;101151.66;;;20.34;33.51
44872;BME280;30602;51.060;17.226;2023-04-22T15:00:33;101146.09;;;20.44;34.30
44872;BME280;30602;51.060;17.226;2023-04-22T15:04:33;101148.91;;;20.37;34.81
44872;BME280;30602;51.060;17.226;2023-04-22T15:07:54;101146.39;;;20.30;34.45
44872;BME280;30602;51.060;17.226;2023-04-22T15:11:30;101141.40;;;20.21;36.03
44872;BME280;30602;51.060;17.226;2023-04-22T15:15:25;101143.13;;;20.04;34.14
44872;BME280;30602;51.060;17.226;2023-04-22T15:19:11;101136.38;;;19.90;34.31
44872;BME280;30602;51.060;17.226;2023-04-22T15:23:04;101133.70;;;20.02;34.64
44872;BME280;30602;51.060;17.226;2023-04-22T15:26:24;101123.95;;;20.04;32.85
44872;BME280;30602;51.060;17.226;2023-04-22T15:30:27;101126.56;;;20.02;33.97
44872;BME280;30602;51.060;17.226;2023-04-22T15:34:38;101106.24;;;19.80;35.69
44872;BME280;30602;51.060;17.226;2023-04-22T15:38:07;101132.98;;;19.97;34.56
44872;BME280;30602;51.060;17.226;2023-04-22T15:41:49;101130.53;;;19.93;35.33
44872;BME280;30602;51.060;17.226;2023-04-22T15:45:52;101130.12;;;19.90;33.81
44872;BME280;30602;51.060;17.226;2023-04-22T15:49:49;101106.70;;;19.75;34.95
44872;BME280;30602;51.060;17.226;2023-04-22T15:57:29;101120.23;;;19.70;36.96
44872;BME280;30602;51.060;17.226;2023-04-22T16:01:28;101123.14;;;19.61;34.45
44872;BME280;30602;51.060;17.226;2023-04-22T16:04:47;101119.66;;;19.53;34.68
44872;BME280;30602;51.060;17.226;2023-04-22T16:08:09;101112.50;;;19.65;34.85
44872;BME280;30602;51.060;17.226;2023-04-22T16:12:09;101110.88;;;19.45;34.97
44872;BME280;30602;51.060;17.226;2023-04-22T16:15:52;101110.08;;;19.20;35.44
44872;BME280;30602;51.060;17.226;2023-04-22T16:19:16;101103.89;;;19.12;35.19
44872;BME280;30602;51.060;17.226;2023-04-22T16:22:55;101089.20;;;18.94;35.39
44872;BME280;30602;51.060;17.226;2023-04-22T16:26:31;101101.72;;;18.88;35.58
44872;BME280;30602;51.060;17.226;2023-04-22T16:29:56;101102.36;;;18.78;37.30
44872;BME280;30602;51.060;17.226;2023-04-22T16:33:29;101097.67;;;18.67;37.25
44872;BME280;30602;51.060;17.226;2023-04-22T16:36:50;101093.33;;;18.87;36.40
44872;BME280;30602;51.060;17.226;2023-04-22T16:40:17;101092.12;;;18.88;35.80
44872;BME280;30602;51.060;17.226;2023-04-22T16:43:50;101066.79;;;18.64;36.16
44872;BME280;30602;51.060;17.226;2023-04-22T16:47:09;101085.70;;;18.69;37.59
44872;BME280;30602;51.060;17.226;2023-04-22T16:50:42;101087.10;;;18.52;36.20
44872;BME280;30602;51.060;17.226;2023-04-22T16:54:03;101080.27;;;18.43;36.88
44872;BME280;30602;51.060;17.226;2023-04-22T16:58:11;101086.92;;;18.25;36.12
44872;BME280;30602;51.060;17.226;2023-04-22T17:01:39;101082.95;;;18.17;35.93
44872;BME280;30602;51.060;17.226;2023-04-22T17:05:06;101082.69;;;18.13;36.71
44872;BME280;30602;51.060;17.226;2023-04-22T17:08:34;101080.87;;;18.14;36.29
44872;BME280;30602;51.060;17.226;2023-04-22T17:12:18;101080.41;;;18.11;37.72
44872;BME280;30602;51.060;17.226;2023-04-22T17:15:37;101080.02;;;18.02;36.53
44872;BME280;30602;51.060;17.226;2023-04-22T17:19:21;101077.08;;;17.83;36.92
44872;BME280;30602;51.060;17.226;2023-04-22T17:23:46;101075.29;;;17.55;38.81
44872;BME280;30602;51.060;17.226;2023-04-22T17:27:07;101054.47;;;17.22;39.11
44872;BME280;30602;51.060;17.226;2023-04-22T17:31:02;101067.89;;;17.26;39.11
44872;BME280;30602;51.060;17.226;2023-04-22T17:35:02;101068.97;;;17.03;39.81
44872;BME280;30602;51.060;17.226;2023-04-22T17:38:34;101069.45;;;16.76;43.05
44872;BME280;30602;51.060;17.226;2023-04-22T17:41:57;101070.94;;;16.60;46.20
44872;BME280;30602;51.060;17.226;2023-04-22T17:49:49;101074.08;;;15.81;49.68
44872;BME280;30602;51.060;17.226;2023-04-22T17:53:16;101080.72;;;15.48;51.55
44872;BME280;30602;51.060;17.226;2023-04-22T17:57:44;101084.78;;;15.11;54.29
44872;BME280;30602;51.060;17.226;2023-04-22T18:01:08;101086.73;;;14.80;55.07
44872;BME280;30602;51.060;17.226;2023-04-22T18:06:46;101086.13;;;14.43;56.40
44872;BME280;30602;51.060;17.226;2023-04-22T18:10:36;101093.73;;;14.09;58.54
44872;BME280;30602;51.060;17.226;2023-04-22T18:20:05;101101.98;;;13.75;62.68
44872;BME280;30602;51.060;17.226;2023-04-22T18:23:39;101104.58;;;13.66;62.35
44872;BME280;30602;51.060;17.226;2023-04-22T18:32:00;101110.61;;;12.97;64.54
44872;BME280;30602;51.060;17.226;2023-04-22T18:36:31;101112.08;;;12.58;66.01
44872;BME280;30602;51.060;17.226;2023-04-22T18:39:57;101118.60;;;12.37;67.48
44872;BME280;30602;51.060;17.226;2023-04-22T18:43:51;101117.71;;;12.14;67.43
44872;BME280;30602;51.060;17.226;2023-04-22T18:47:27;101118.45;;;11.98;66.22
44872;BME280;30602;51.060;17.226;2023-04-22T18:52:33;101099.90;;;11.84;69.56
44872;BME280;30602;51.060;17.226;2023-04-22T18:56:13;101097.41;;;11.82;71.14
44872;BME280;30602;51.060;17.226;2023-04-22T19:05:26;101115.08;;;11.62;74.16
44872;BME280;30602;51.060;17.226;2023-04-22T19:08:57;101116.34;;;11.47;73.18
44872;BME280;30602;51.060;17.226;2023-04-22T19:13:07;101115.38;;;11.30;73.34
44872;BME280;30602;51.060;17.226;2023-04-22T19:16:55;101116.19;;;11.15;74.65
44872;BME280;30602;51.060;17.226;2023-04-22T19:27:33;101116.01;;;10.94;76.23
44872;BME280;30602;51.060;17.226;2023-04-22T19:31:02;101112.23;;;10.81;76.55
44872;BME280;30602;51.060;17.226;2023-04-22T19:34:55;101114.43;;;10.84;76.48
44872;BME280;30602;51.060;17.226;2023-04-22T19:38:49;101106.57;;;10.82;77.30
44872;BME280;30602;51.060;17.226;2023-04-22T19:42:10;101113.65;;;10.71;78.18
44872;BME280;30602;51.060;17.226;2023-04-22T19:46:03;101112.65;;;10.56;78.11
44872;BME280;30602;51.060;17.226;2023-04-22T19:49:32;101103.66;;;10.49;77.34
44872;BME280;30602;51.060;17.226;2023-04-22T19:53:34;101105.87;;;10.41;76.90
44872;BME280;30602;51.060;17.226;2023-04-22T19:57:55;101100.54;;;10.33;76.82
44872;BME280;30602;51.060;17.226;2023-04-22T20:01:54;101100.57;;;10.29;74.92
44872;BME280;30602;51.060;17.226;2023-04-22T20:05:18;101100.34;;;10.33;74.94
44872;BME280;30602;51.060;17.226;2023-04-22T20:08:45;101098.90;;;10.32;74.97
44872;BME280;30602;51.060;17.226;2023-04-22T20:12:09;101098.38;;;10.28;74.26
44872;BME280;30602;51.060;17.226;2023-04-22T20:15:33;101098.82;;;10.14;75.41
44872;BME280;30602;51.060;17.226;2023-04-22T20:19:38;101101.91;;;10.02;75.43
44872;BME280;30602;51.060;17.226;2023-04-22T20:23:23;101105.43;;;9.94;75.81
44872;BME280;30602;51.060;17.226;2023-04-22T20:27:13;101102.41;;;9.79;77.60
44872;BME280;30602;51.060;17.226;2023-04-22T20:30:55;101102.16;;;9.70;78.20
44872;BME280;30602;51.060;17.226;2023-04-22T20:34:36;101089.66;;;9.54;78.52
44872;BME280;30602;51.060;17.226;2023-04-22T20:38:20;101097.31;;;9.45;78.54
44872;BME280;30602;51.060;17.226;2023-04-22T20:42:09;101084.05;;;9.28;77.37
44872;BME280;30602;51.060;17.226;2023-04-22T20:45:36;101098.49;;;9.46;78.16
44872;BME280;30602;51.060;17.226;2023-04-22T20:49:00;101103.25;;;9.40;77.83
44872;BME280;30602;51.060;17.226;2023-04-22T20:52:53;101098.65;;;9.41;77.56
44872;BME280;30602;51.060;17.226;2023-04-22T20:57:24;101096.66;;;9.45;76.86
44872;BME280;30602;51.060;17.226;2023-04-22T21:01:11;101093.96;;;9.45;76.04
44872;BME280;30602;51.060;17.226;2023-04-22T21:05:34;101091.32;;;9.47;76.14
44872;BME280;30602;51.060;17.226;2023-04-22T21:09:07;101097.77;;;9.35;76.78
44872;BME280;30602;51.060;17.226;2023-04-22T21:13:27;101098.38;;;9.23;77.36
44872;BME280;30602;51.060;17.226;2023-04-22T21:17:23;101099.39;;;9.15;76.10
44872;BME280;30602;51.060;17.226;2023-04-22T21:20:56;101100.08;;;9.06;77.64